Time;durP1;ratioP1;P1;durP2;ratioP2;P2;SDS_P1;SDS_P2;PMS_P1;PMS_P2;Temp;Humidity;BMP_temperature;BMP_pressure;BME280_temperature;BME280_humidity;BME280_pressure;Samples;Min_cycle;Max_cycle;Signal;HPM_P1;HPM_P2
2022/03/30 00:01:42;;;;;;;22.83;5.65;;;11.60;99.90;;;;;;5098218;28;20047;-72
2022/03/30 00:04:46;;;;;;;27.17;6.13;;;11.60;99.90;;;;;;5097682;28;20051;-72
2022/03/30 00:07:53;;;;;;;16.77;5.60;;;11.30;99.90;;;;;;5097235;28;20454;-72
2022/03/30 00:10:58;;;;;;;19.02;6.95;;;11.20;99.90;;;;;;5097892;28;20050;-72
2022/03/30 00:14:03;;;;;;;18.73;5.30;;;11.10;99.90;;;;;;5097181;28;20055;-72
2022/03/30 00:17:07;;;;;;;22.60;6.65;;;11.00;99.90;;;;;;5096892;28;20047;-72
2022/03/30 00:20:11;;;;;;;22.20;5.80;;;10.80;99.90;;;;;;5096532;28;20055;-72
2022/03/30 00:23:15;;;;;;;19.42;6.30;;;10.60;99.90;;;;;;5096972;28;20055;-72
2022/03/30 00:26:19;;;;;;;21.98;7.95;;;10.50;99.90;;;;;;5096625;28;20059;-72
2022/03/30 00:29:24;;;;;;;20.83;6.15;;;10.40;99.90;;;;;;5097178;28;20059;-72
2022/03/30 00:32:28;;;;;;;20.52;5.88;;;10.30;99.90;;;;;;5097368;28;20486;-71
2022/03/30 00:35:32;;;;;;;25.60;6.80;;;10.30;99.90;;;;;;5096942;28;20043;-72
2022/03/30 00:38:36;;;;;;;24.75;6.72;;;10.20;99.90;;;;;;5097222;28;20047;-72
2022/03/30 00:41:40;;;;;;;13.23;5.72;;;10.20;99.90;;;;;;5097224;28;20051;-72
2022/03/30 00:44:46;;;;;;;20.52;6.43;;;10.30;99.90;;;;;;5095223;28;20367;-72
2022/03/30 00:47:52;;;;;;;24.48;7.05;;;10.30;99.90;;;;;;5093468;28;20051;-71
2022/03/30 00:50:56;;;;;;;22.58;8.10;;;10.20;99.90;;;;;;5093750;28;20047;-72
2022/03/30 00:54:01;;;;;;;21.77;6.60;;;10.10;99.90;;;;;;5093624;28;20043;-72
2022/03/30 00:57:10;;;;;;;21.00;6.35;;;10.00;99.90;;;;;;5093343;28;20043;-71
2022/03/30 01:00:16;;;;;;;20.60;7.38;;;9.80;99.90;;;;;;5093845;28;20047;-72
2022/03/30 01:03:20;;;;;;;12.98;5.53;;;9.70;99.90;;;;;;5093645;28;20058;-72
2022/03/30 01:06:24;;;;;;;16.55;6.07;;;9.70;99.90;;;;;;5092618;28;20540;-72
2022/03/30 01:09:29;;;;;;;17.20;6.18;;;9.60;99.90;;;;;;5093546;28;20043;-72
2022/03/30 01:12:36;;;;;;;28.10;7.45;;;9.50;99.90;;;;;;5093249;28;20055;-72
2022/03/30 01:15:41;;;;;;;24.40;6.57;;;9.50;99.90;;;;;;5093212;28;20039;-72
2022/03/30 01:18:45;;;;;;;18.42;6.55;;;9.50;99.90;;;;;;5093521;28;20047;-72
2022/03/30 01:21:49;;;;;;;27.00;7.50;;;9.50;99.90;;;;;;5093626;28;20043;-72
2022/03/30 01:24:53;;;;;;;28.23;7.72;;;9.40;99.90;;;;;;5093160;28;20481;-71
2022/03/30 01:27:59;;;;;;;19.92;7.35;;;9.40;99.90;;;;;;5092946;28;20047;-72
2022/03/30 01:34:25;;;;;;;;;;;9.30;99.90;;;;;;5093578;28;20047;-72
2022/03/30 01:37:31;;;;;;;24.90;8.65;;;9.30;99.90;;;;;;5092608;28;20620;-72
2022/03/30 01:40:35;;;;;;;27.95;7.43;;;9.30;99.90;;;;;;5092791;28;20050;-72
2022/03/30 01:43:39;;;;;;;16.85;6.82;;;9.40;99.90;;;;;;5092969;28;20051;-72
2022/03/30 01:46:43;;;;;;;25.58;8.18;;;9.40;99.90;;;;;;5091881;28;20043;-72
2022/03/30 01:49:48;;;;;;;19.67;6.53;;;9.40;99.90;;;;;;5092599;28;20043;-72
2022/03/30 01:52:52;;;;;;;22.02;7.32;;;9.40;99.90;;;;;;5092588;28;20047;-72
2022/03/30 01:55:56;;;;;;;17.55;6.40;;;9.40;99.90;;;;;;5091764;28;20099;-72
2022/03/30 01:59:00;;;;;;;28.20;7.63;;;9.40;99.90;;;;;;5092753;28;20114;-72
2022/03/30 02:02:05;;;;;;;24.52;9.70;;;9.30;99.90;;;;;;5092536;28;20494;-72
2022/03/30 02:05:10;;;;;;;20.55;7.70;;;9.30;99.90;;;;;;5092620;28;20047;-72
2022/03/30 02:08:14;;;;;;;18.35;7.32;;;9.30;99.90;;;;;;5092056;28;20058;-72
2022/03/30 02:11:18;;;;;;;28.02;7.60;;;9.20;99.90;;;;;;5092440;28;20046;-72
2022/03/30 02:14:22;;;;;;;21.15;7.07;;;9.20;99.90;;;;;;5092281;28;20051;-72
2022/03/30 02:17:27;;;;;;;25.58;8.02;;;9.10;99.90;;;;;;5091452;28;20375;-72
2022/03/30 02:20:32;;;;;;;25.83;8.82;;;9.10;99.90;;;;;;5092369;28;20051;-72
2022/03/30 02:23:36;;;;;;;18.90;8.43;;;9.20;99.90;;;;;;5091838;28;20055;-72
2022/03/30 02:26:40;;;;;;;20.48;7.43;;;9.20;99.90;;;;;;5091547;28;20055;-71
2022/03/30 02:29:44;;;;;;;22.98;9.02;;;9.30;99.90;;;;;;5091893;28;20047;-72
2022/03/30 02:32:47;;;;;;;24.75;6.72;;;9.40;99.90;;;;;;5092136;28;20043;-72
2022/03/30 02:35:53;;;;;;;21.73;7.55;;;9.40;99.90;;;;;;5091832;28;20080;-72
2022/03/30 02:38:57;;;;;;;20.33;6.70;;;9.50;99.90;;;;;;5092082;28;20043;-72
2022/03/30 02:42:01;;;;;;;18.85;6.82;;;9.50;99.90;;;;;;5091765;28;20047;-72
2022/03/30 02:45:06;;;;;;;20.55;6.78;;;9.60;99.90;;;;;;5091673;28;20047;-72
2022/03/30 02:48:18;;;;;;;22.67;7.63;;;9.60;99.90;;;;;;5090821;28;20043;-72
2022/03/30 02:51:22;;;;;;;18.45;7.38;;;9.70;99.90;;;;;;5092129;28;20043;-72
2022/03/30 02:54:27;;;;;;;20.42;7.68;;;9.60;99.90;;;;;;5091794;28;20048;-72
2022/03/30 02:57:31;;;;;;;21.67;7.07;;;9.60;99.90;;;;;;5090912;28;20039;-72
2022/03/30 03:00:36;;;;;;;20.40;6.50;;;9.70;99.90;;;;;;5091371;28;20429;-72
2022/03/30 03:03:40;;;;;;;22.70;7.47;;;9.70;99.90;;;;;;5091576;28;20051;-72
2022/03/30 03:06:44;;;;;;;19.05;8.25;;;9.70;99.90;;;;;;5088696;28;20039;-72
2022/03/30 03:09:48;;;;;;;21.58;7.10;;;9.70;99.90;;;;;;5091087;28;20047;-72
2022/03/30 03:12:53;;;;;;;20.95;7.72;;;9.60;99.90;;;;;;5091211;28;20065;-72
2022/03/30 03:15:57;;;;;;;20.75;7.28;;;9.70;99.90;;;;;;5090523;28;20051;-72
2022/03/30 03:19:02;;;;;;;14.57;6.80;;;9.50;99.90;;;;;;5091447;28;20043;-72
2022/03/30 03:22:06;;;;;;;19.77;8.25;;;9.50;99.90;;;;;;5091295;28;20051;-72
2022/03/30 03:25:11;;;;;;;19.13;9.15;;;9.30;99.90;;;;;;5091272;28;20043;-72
2022/03/30 03:28:15;;;;;;;23.55;9.10;;;9.10;99.90;;;;;;5090276;28;20043;-71
2022/03/30 03:31:19;;;;;;;18.98;7.10;;;9.10;99.90;;;;;;5091030;28;20394;-72
2022/03/30 03:34:23;;;;;;;27.83;8.35;;;9.10;99.90;;;;;;5090996;28;20039;-72
2022/03/30 03:37:26;;;;;;;22.67;7.90;;;9.20;99.90;;;;;;5090327;28;20059;-72
2022/03/30 03:40:31;;;;;;;18.38;7.35;;;9.20;99.90;;;;;;5091400;28;20378;-72
2022/03/30 03:43:37;;;;;;;27.33;9.18;;;9.20;99.90;;;;;;5091024;28;20051;-72
2022/03/30 03:46:41;;;;;;;14.43;6.85;;;9.30;99.90;;;;;;5090037;28;20047;-72
2022/03/30 03:49:45;;;;;;;20.65;7.75;;;9.30;99.90;;;;;;5091200;28;20399;-72
2022/03/30 03:52:49;;;;;;;20.88;7.63;;;9.40;99.90;;;;;;5091539;28;20039;-72
2022/03/30 03:55:53;;;;;;;18.88;7.22;;;9.40;99.90;;;;;;5090653;28;20043;-72
2022/03/30 03:58:57;;;;;;;26.90;7.40;;;9.40;99.90;;;;;;5091153;28;20055;-72
2022/03/30 04:02:07;;;;;;;21.48;8.15;;;9.10;99.90;;;;;;5091595;28;20505;-72
2022/03/30 04:05:13;;;;;;;22.08;7.30;;;9.10;99.90;;;;;;5091104;28;20122;-72
2022/03/30 04:08:17;;;;;;;26.52;8.00;;;9.10;99.90;;;;;;5090350;28;20039;-72
2022/03/30 04:11:21;;;;;;;18.23;8.50;;;9.10;99.90;;;;;;5090981;28;20066;-72
2022/03/30 04:14:25;;;;;;;19.95;7.57;;;9.20;99.90;;;;;;5090968;28;20741;-72
2022/03/30 04:17:29;;;;;;;28.35;8.15;;;9.20;99.90;;;;;;5090146;28;20047;-72
2022/03/30 04:20:33;;;;;;;23.48;7.70;;;9.20;99.90;;;;;;5092487;28;20497;-72
2022/03/30 04:23:38;;;;;;;18.98;7.32;;;9.20;99.90;;;;;;5094872;28;20054;-72
2022/03/30 04:26:42;;;;;;;28.10;8.00;;;9.30;99.90;;;;;;5094277;28;20386;-72
2022/03/30 04:29:45;;;;;;;19.55;7.65;;;9.30;99.90;;;;;;5094606;28;20051;-71
2022/03/30 04:32:50;;;;;;;23.92;7.15;;;9.40;99.90;;;;;;5094640;28;20039;-72
2022/03/30 04:35:54;;;;;;;19.23;7.80;;;9.50;99.90;;;;;;5094615;28;20059;-72
2022/03/30 04:38:58;;;;;;;20.75;6.82;;;9.50;99.90;;;;;;5094447;28;20054;-72
2022/03/30 04:42:02;;;;;;;16.20;7.10;;;9.60;99.90;;;;;;5094187;28;20046;-72
2022/03/30 04:45:07;;;;;;;20.25;6.18;;;9.70;99.90;;;;;;5094399;28;20047;-72
2022/03/30 04:48:11;;;;;;;14.32;5.63;;;9.80;99.90;;;;;;5093382;28;20051;-73
2022/03/30 04:51:15;;;;;;;18.10;5.68;;;9.90;99.90;;;;;;5094014;28;20474;-72
2022/03/30 04:54:19;;;;;;;17.15;5.15;;;10.10;99.90;;;;;;5094300;28;20653;-72
2022/03/30 04:57:23;;;;;;;21.20;5.15;;;10.20;99.90;;;;;;5093363;28;20047;-72
2022/03/30 05:00:27;;;;;;;13.75;5.57;;;10.30;99.90;;;;;;5093923;28;20047;-72
2022/03/30 05:03:31;;;;;;;27.05;7.18;;;10.40;99.90;;;;;;5094183;28;20375;-72
2022/03/30 05:06:35;;;;;;;23.58;6.43;;;9.90;99.90;;;;;;5093534;28;20054;-72
2022/03/30 05:09:39;;;;;;;19.10;5.78;;;9.80;99.90;;;;;;5093659;28;20047;-72
2022/03/30 05:12:43;;;;;;;23.05;6.28;;;9.70;99.90;;;;;;5094347;28;20031;-72
2022/03/30 05:15:47;;;;;;;24.20;6.55;;;9.70;99.90;;;;;;5094202;28;20043;-72
2022/03/30 05:18:51;;;;;;;25.35;6.82;;;9.60;99.90;;;;;;5093398;28;20047;-72
2022/03/30 05:21:55;;;;;;;15.57;6.05;;;9.50;99.90;;;;;;5093472;28;20383;-72
2022/03/30 05:25:00;;;;;;;16.30;6.80;;;9.40;99.90;;;;;;5093418;28;20482;-71
2022/03/30 05:28:04;;;;;;;20.98;8.80;;;9.50;99.90;;;;;;5092349;28;20051;-71
2022/03/30 05:31:09;;;;;;;23.02;6.57;;;9.50;99.90;;;;;;5092336;28;20047;-72
2022/03/30 05:34:15;;;;;;;18.77;6.68;;;9.50;99.90;;;;;;5092346;28;20056;-72
2022/03/30 05:37:21;;;;;;;20.27;6.85;;;9.60;99.90;;;;;;5092268;28;20047;-72
2022/03/30 05:40:25;;;;;;;18.75;6.57;;;9.50;99.90;;;;;;5092653;28;20055;-72
2022/03/30 05:43:29;;;;;;;17.73;5.78;;;9.60;99.90;;;;;;5093098;28;20110;-72
2022/03/30 05:46:35;;;;;;;14.27;6.07;;;9.60;99.90;;;;;;5092297;28;20059;-72
2022/03/30 05:49:41;;;;;;;26.65;6.55;;;9.70;99.90;;;;;;5092648;28;20039;-72
2022/03/30 05:52:46;;;;;;;20.35;7.38;;;9.80;99.90;;;;;;5092742;28;20055;-72
2022/03/30 05:55:50;;;;;;;17.08;6.25;;;9.90;99.90;;;;;;5092886;28;20047;-72
2022/03/30 05:58:54;;;;;;;20.27;6.88;;;10.00;99.90;;;;;;5092857;28;20051;-72
2022/03/30 06:01:59;;;;;;;21.02;6.93;;;9.90;99.90;;;;;;5107023;28;20422;-72
2022/03/30 06:05:06;;;;;;;19.08;6.63;;;9.90;99.90;;;;;;5107037;28;20066;-72
2022/03/30 06:08:11;;;;;;;27.08;9.07;;;9.80;99.90;;;;;;5101368;28;20055;-72
2022/03/30 06:11:15;;;;;;;20.23;7.35;;;9.80;99.90;;;;;;5104740;28;20051;-72
2022/03/30 06:14:20;;;;;;;24.15;8.27;;;9.90;99.90;;;;;;5105492;28;20059;-72
2022/03/30 06:17:25;;;;;;;18.63;6.97;;;9.90;99.90;;;;;;5106273;28;20481;-72
2022/03/30 06:20:29;;;;;;;18.20;6.95;;;9.90;99.90;;;;;;5112405;28;20046;-72
2022/03/30 06:23:34;;;;;;;25.88;7.97;;;10.00;99.90;;;;;;5104856;28;20450;-72
2022/03/30 06:26:40;;;;;;;32.92;9.40;;;10.10;99.90;;;;;;5104708;28;20046;-72
2022/03/30 06:29:44;;;;;;;18.63;8.25;;;10.10;99.90;;;;;;5106749;28;20054;-72
2022/03/30 06:32:49;;;;;;;21.33;7.82;;;9.90;99.90;;;;;;5105790;28;20031;-71
2022/03/30 06:35:53;;;;;;;17.70;8.00;;;9.70;99.90;;;;;;5107812;28;20476;-72
2022/03/30 06:38:58;;;;;;;20.73;8.27;;;9.60;99.90;;;;;;5108003;28;20058;-71
2022/03/30 06:42:03;;;;;;;21.77;8.45;;;9.50;99.90;;;;;;5108290;28;20042;-72
2022/03/30 06:45:09;;;;;;;27.80;9.15;;;9.60;99.90;;;;;;5108585;28;20513;-72
2022/03/30 06:48:14;;;;;;;27.63;9.70;;;9.50;99.90;;;;;;5097196;28;20039;-72
2022/03/30 06:51:19;;;;;;;18.88;8.88;;;9.50;99.90;;;;;;5104852;28;20050;-72
2022/03/30 06:54:23;;;;;;;22.00;8.80;;;9.50;99.90;;;;;;5107294;28;20378;-71
2022/03/30 06:57:27;;;;;;;20.25;9.10;;;9.50;99.90;;;;;;5105889;28;20047;-71
2022/03/30 07:00:31;;;;;;;30.85;9.75;;;9.60;99.90;;;;;;5108355;28;20042;-72
2022/03/30 07:03:35;;;;;;;32.67;10.77;;;9.70;99.90;;;;;;5106585;28;20110;-72
2022/03/30 07:10:14;;;;;;;29.35;11.63;;;9.70;99.90;;;;;;5105208;28;20051;-72
2022/03/30 07:10:17;;;;;;;21.02;11.10;;;9.90;99.90;;;;;;5110341;28;20406;-71
2022/03/30 07:13:22;;;;;;;34.67;13.38;;;10.10;99.90;;;;;;5104204;28;20042;-71
2022/03/30 07:16:26;;;;;;;23.60;10.45;;;10.30;99.90;;;;;;5102111;28;20043;-71
2022/03/30 07:19:30;;;;;;;26.50;12.00;;;10.30;99.90;;;;;;5098934;28;20047;-71
2022/03/30 07:22:34;;;;;;;28.10;10.77;;;10.40;99.90;;;;;;5109642;28;20047;-71
2022/03/30 07:25:39;;;;;;;33.63;11.23;;;10.40;99.90;;;;;;5105285;28;20387;-71
2022/03/30 07:28:43;;;;;;;24.90;10.63;;;10.50;99.90;;;;;;5104868;28;20047;-71
2022/03/30 07:31:47;;;;;;;29.33;10.77;;;10.60;99.90;;;;;;5107071;28;20047;-71
2022/03/30 07:34:53;;;;;;;22.27;10.55;;;10.60;99.90;;;;;;5110655;28;20484;-71
2022/03/30 07:37:58;;;;;;;31.55;12.52;;;10.70;99.90;;;;;;5102509;28;20481;-71
2022/03/30 07:41:03;;;;;;;32.00;12.27;;;10.80;99.90;;;;;;5107707;28;20034;-71
2022/03/30 07:44:08;;;;;;;27.77;11.95;;;10.80;99.90;;;;;;5107455;28;20062;-71
2022/03/30 07:47:11;;;;;;;30.92;13.30;;;10.80;99.90;;;;;;5109884;28;20046;-71
2022/03/30 07:50:15;;;;;;;38.67;14.02;;;10.80;99.90;;;;;;5109578;28;20474;-71
2022/03/30 07:53:20;;;;;;;32.78;14.82;;;10.90;99.90;;;;;;5110041;28;20063;-71
2022/03/30 07:56:25;;;;;;;35.92;13.85;;;10.90;99.90;;;;;;5107866;28;20514;-71
2022/03/30 07:59:29;;;;;;;31.77;12.73;;;10.70;99.90;;;;;;5111230;28;20047;-71
2022/03/30 08:02:33;;;;;;;23.27;11.82;;;10.80;99.90;;;;;;5111414;28;20113;-71
2022/03/30 08:05:38;;;;;;;29.58;13.00;;;11.00;99.90;;;;;;5108015;28;20030;-71
2022/03/30 08:08:42;;;;;;;23.13;11.30;;;11.00;99.90;;;;;;5107040;28;20034;-71
2022/03/30 08:11:46;;;;;;;34.67;12.27;;;11.00;99.90;;;;;;5109151;28;20062;-71
2022/03/30 08:14:51;;;;;;;21.80;10.05;;;11.10;99.90;;;;;;5109973;28;20038;-71
2022/03/30 08:17:55;;;;;;;36.13;12.65;;;11.10;99.90;;;;;;5109355;28;20118;-71
2022/03/30 08:24:22;;;;;;;25.08;11.07;;;11.40;99.90;;;;;;5109759;28;20416;-72
2022/03/30 08:27:28;;;;;;;21.55;11.55;;;11.30;99.90;;;;;;5109540;28;20411;-72
2022/03/30 08:30:34;;;;;;;32.25;12.10;;;11.30;99.90;;;;;;5111140;28;20042;-71
2022/03/30 08:33:38;;;;;;;20.05;9.85;;;11.40;99.90;;;;;;5113165;28;20035;-72
2022/03/30 08:36:42;;;;;;;21.92;10.25;;;11.50;99.90;;;;;;5110816;28;20382;-72
2022/03/30 08:39:48;;;;;;;22.55;10.32;;;11.80;99.90;;;;;;5102451;28;20043;-71
2022/03/30 08:42:53;;;;;;;29.83;10.23;;;12.00;99.90;;;;;;5110052;28;20469;-71
2022/03/30 08:46:00;;;;;;;31.92;11.80;;;12.30;99.90;;;;;;5111309;28;20038;-72
2022/03/30 08:49:05;;;;;;;22.25;10.07;;;12.10;99.90;;;;;;5113653;28;20047;-71
2022/03/30 08:52:10;;;;;;;29.45;11.25;;;12.30;99.90;;;;;;5104043;28;20055;-71
2022/03/30 08:55:16;;;;;;;20.80;10.32;;;12.50;99.90;;;;;;5108192;28;20043;-72
2022/03/30 08:58:20;;;;;;;22.42;10.35;;;12.40;99.90;;;;;;5107722;28;20039;-72
2022/03/30 09:01:24;;;;;;;22.95;9.60;;;12.00;99.90;;;;;;5110559;28;20054;-72
2022/03/30 09:04:28;;;;;;;20.88;10.88;;;12.00;99.90;;;;;;5111028;28;20042;-72
2022/03/30 09:07:32;;;;;;;19.92;10.90;;;11.80;99.90;;;;;;5104733;28;20043;-71
2022/03/30 09:10:37;;;;;;;26.50;11.18;;;11.20;99.90;;;;;;5105786;28;20055;-72
2022/03/30 09:13:41;;;;;;;32.15;12.63;;;11.30;99.90;;;;;;5105401;28;20050;-71
2022/03/30 09:16:51;;;;;;;32.25;14.70;;;11.20;99.90;;;;;;5107287;28;20124;-71
2022/03/30 09:19:56;;;;;;;35.83;14.27;;;11.20;99.90;;;;;;5102963;28;20381;-71
2022/03/30 09:23:00;;;;;;;24.92;12.95;;;11.30;99.90;;;;;;5108261;28;20074;-72
2022/03/30 09:26:05;;;;;;;25.98;12.55;;;11.40;99.90;;;;;;5107832;28;20519;-71
2022/03/30 09:29:10;;;;;;;27.15;12.38;;;11.40;99.90;;;;;;5108197;28;20043;-71
2022/03/30 09:32:15;;;;;;;24.23;10.88;;;11.50;99.90;;;;;;5107992;28;20043;-71
2022/03/30 09:35:27;;;;;;;30.77;13.25;;;11.50;99.90;;;;;;5108758;28;20046;-71
2022/03/30 09:38:38;;;;;;;29.88;13.38;;;11.50;99.90;;;;;;5110628;28;20058;-71
2022/03/30 09:41:52;;;;;;;31.20;13.63;;;11.50;99.90;;;;;;5109480;28;20122;-71
2022/03/30 09:44:57;;;;;;;37.25;13.43;;;11.50;99.90;;;;;;5110891;28;20516;-71
2022/03/30 09:48:18;;;;;;;28.75;12.68;;;11.40;99.90;;;;;;5110211;28;20051;-71
2022/03/30 09:51:27;;;;;;;19.08;12.23;;;11.50;99.90;;;;;;5109572;28;20062;-71
2022/03/30 09:54:47;;;;;;;22.85;12.60;;;11.60;99.90;;;;;;5111779;28;20039;-71
2022/03/30 09:57:52;;;;;;;26.73;14.45;;;11.70;99.90;;;;;;5106874;28;20055;-71
2022/03/30 10:01:22;;;;;;;28.02;13.88;;;11.80;99.90;;;;;;5107854;28;20483;-72
2022/03/30 10:04:26;;;;;;;28.35;13.38;;;11.90;99.90;;;;;;5110475;28;20050;-72
2022/03/30 10:07:30;;;;;;;27.13;13.55;;;12.00;99.90;;;;;;5109707;28;20512;-72
2022/03/30 10:10:35;;;;;;;24.00;13.43;;;12.10;99.90;;;;;;5108277;28;20063;-72
2022/03/30 10:13:40;;;;;;;26.08;13.35;;;12.00;99.90;;;;;;5109551;28;20038;-72
2022/03/30 10:16:45;;;;;;;30.63;14.40;;;11.80;99.90;;;;;;5108355;28;20481;-71
2022/03/30 10:19:52;;;;;;;31.98;14.52;;;11.50;99.90;;;;;;5102182;28;20387;-71
2022/03/30 10:23:11;;;;;;;27.80;16.02;;;11.40;99.90;;;;;;5100768;28;20043;-71
2022/03/30 10:26:25;;;;;;;32.70;15.07;;;11.30;99.90;;;;;;5110222;28;20046;-72
2022/03/30 10:29:31;;;;;;;28.08;13.85;;;11.30;99.90;;;;;;5106265;28;20054;-71
2022/03/30 10:32:37;;;;;;;36.08;15.27;;;11.10;99.90;;;;;;5109246;28;20058;-72
2022/03/30 10:35:46;;;;;;;31.92;16.08;;;10.70;99.90;;;;;;5105184;28;20042;-71
2022/03/30 10:39:15;;;;;;;30.92;16.00;;;10.80;99.90;;;;;;5107104;28;20391;-71
2022/03/30 10:42:19;;;;;;;34.20;18.15;;;10.60;99.90;;;;;;5104212;28;20043;-71
2022/03/30 10:45:55;;;;;;;36.28;17.10;;;10.50;99.90;;;;;;5103175;28;20054;-71
2022/03/30 10:49:20;;;;;;;32.63;16.95;;;10.50;99.90;;;;;;5103324;28;20040;-71
2022/03/30 10:52:43;;;;;;;35.80;17.10;;;10.60;99.90;;;;;;5105673;28;20054;-71
2022/03/30 10:55:47;;;;;;;38.75;18.27;;;10.50;99.90;;;;;;5107661;28;20497;-71
2022/03/30 10:58:59;;;;;;;38.08;18.52;;;10.40;99.90;;;;;;5105844;28;20367;-72
2022/03/30 11:02:12;;;;;;;33.30;17.23;;;10.50;99.90;;;;;;5109735;28;20070;-71
2022/03/30 11:05:28;;;;;;;36.80;19.40;;;10.70;99.90;;;;;;5108738;28;20050;-71
2022/03/30 11:08:32;;;;;;;39.67;18.27;;;10.70;99.90;;;;;;5109029;28;20046;-71
2022/03/30 11:11:44;;;;;;;32.15;18.33;;;10.70;99.90;;;;;;5104093;28;20042;-71
2022/03/30 11:15:03;;;;;;;36.80;17.15;;;10.80;99.90;;;;;;5105525;28;20156;-71
2022/03/30 11:18:20;;;;;;;30.83;16.48;;;10.90;99.90;;;;;;5110975;28;20557;-71
2022/03/30 11:21:25;;;;;;;29.50;15.43;;;11.10;99.90;;;;;;5106383;28;20051;-72
2022/03/30 11:24:30;;;;;;;27.60;15.50;;;11.20;99.90;;;;;;5104147;28;20042;-71
2022/03/30 11:27:35;;;;;;;26.50;14.18;;;11.60;99.90;;;;;;5099199;28;20043;-71
2022/03/30 11:30:43;;;;;;;34.95;14.82;;;11.80;99.90;;;;;;5107520;28;20054;-71
2022/03/30 11:34:28;;;;;;;22.55;13.13;;;12.00;99.90;;;;;;5107020;28;20035;-71
2022/03/30 11:37:41;;;;;;;24.13;13.70;;;12.00;99.90;;;;;;5100721;28;20047;-71
2022/03/30 11:40:45;;;;;;;23.95;12.63;;;12.00;99.90;;;;;;5104455;28;20043;-71
2022/03/30 11:47:17;;;;;;;24.65;13.77;;;12.50;99.90;;;;;;5106146;28;20047;-71
2022/03/30 11:50:30;;;;;;;20.92;11.63;;;12.70;99.90;;;;;;5103142;28;20038;-71
2022/03/30 11:53:35;;;;;;;22.63;12.40;;;12.90;99.90;;;;;;5105683;28;20055;-71
2022/03/30 11:56:40;;;;;;;16.48;10.85;;;13.10;99.90;;;;;;5103327;28;20482;-71
2022/03/30 12:00:02;;;;;;;19.52;11.70;;;13.50;99.90;;;;;;5106010;28;20087;-71
2022/03/30 12:03:17;;;;;;;17.15;10.45;;;13.80;99.90;;;;;;5103795;28;20481;-71
2022/03/30 12:06:21;;;;;;;15.07;8.57;;;14.10;99.90;;;;;;5107007;28;20035;-71
2022/03/30 12:09:25;;;;;;;14.40;8.68;;;14.30;99.90;;;;;;5111203;28;20047;-71
2022/03/30 12:12:36;;;;;;;23.90;11.82;;;13.90;99.90;;;;;;5107633;28;20051;-71
2022/03/30 12:15:41;;;;;;;;;;;13.40;99.90;;;;;;5111475;28;20402;-70
2022/03/30 12:18:57;;;;;;;19.17;10.88;;;12.90;99.90;;;;;;5111088;28;20335;-71
2022/03/30 12:22:06;;;;;;;21.80;12.07;;;12.20;99.90;;;;;;5099526;28;20050;-71
2022/03/30 12:25:18;;;;;;;20.17;11.98;;;12.00;99.90;;;;;;5100741;28;20038;-70
2022/03/30 12:28:32;;;;;;;20.50;11.70;;;11.80;99.90;;;;;;5105063;28;20039;-71
2022/03/30 12:31:40;;;;;;;23.30;11.52;;;11.70;99.90;;;;;;5101302;28;20284;-72
2022/03/30 12:34:48;;;;;;;16.95;10.40;;;11.80;99.90;;;;;;5095617;28;20043;-71
2022/03/30 12:38:08;;;;;;;14.18;9.75;;;11.80;99.90;;;;;;5108369;28;20038;-71
2022/03/30 12:41:25;;;;;;;15.27;8.60;;;12.20;99.90;;;;;;5109683;28;20055;-70
2022/03/30 12:44:35;;;;;;;15.30;8.55;;;12.70;99.90;;;;;;5106991;28;20043;-70
2022/03/30 12:47:51;;;;;;;14.80;9.32;;;12.90;99.90;;;;;;5110905;28;20046;-71
2022/03/30 12:50:59;;;;;;;24.10;10.52;;;12.40;99.90;;;;;;5112018;28;20039;-71
2022/03/30 12:54:19;;;;;;;16.00;8.95;;;12.20;99.90;;;;;;5113622;28;20046;-71
2022/03/30 12:57:28;;;;;;;17.38;10.05;;;12.20;99.90;;;;;;5105532;28;20043;-71
2022/03/30 13:00:38;;;;;;;16.65;10.50;;;12.40;99.90;;;;;;5110675;28;20059;-71
2022/03/30 13:03:44;;;;;;;17.60;10.63;;;12.40;99.90;;;;;;5111611;28;20038;-71
2022/03/30 13:07:07;;;;;;;20.40;10.23;;;12.30;99.90;;;;;;5112143;28;20046;-71
2022/03/30 13:10:12;;;;;;;16.92;9.73;;;12.20;99.90;;;;;;5114516;28;20121;-71
2022/03/30 13:13:18;;;;;;;20.92;11.18;;;12.30;99.90;;;;;;5112355;28;20052;-71
2022/03/30 13:16:29;;;;;;;18.00;10.98;;;12.50;99.90;;;;;;5113003;28;20047;-71
2022/03/30 13:19:34;;;;;;;16.90;10.77;;;12.70;99.90;;;;;;5109284;28;20489;-71
2022/03/30 13:22:50;;;;;;;20.52;12.02;;;13.00;99.90;;;;;;5114089;28;20058;-71
2022/03/30 13:25:54;;;;;;;19.98;11.63;;;13.10;99.90;;;;;;5102214;28;20055;-71
2022/03/30 13:28:58;;;;;;;20.38;12.63;;;13.30;99.90;;;;;;5103850;28;20055;-71
2022/03/30 13:32:03;;;;;;;17.75;11.40;;;13.10;99.90;;;;;;5113092;28;20038;-71
2022/03/30 13:35:08;;;;;;;12.65;8.88;;;13.20;99.90;;;;;;5092602;28;20043;-71
2022/03/30 13:38:17;;;;;;;12.27;8.68;;;13.20;99.90;;;;;;5108580;28;20473;-71
2022/03/30 13:41:21;;;;;;;15.43;10.07;;;12.80;99.90;;;;;;5113202;28;20078;-71
2022/03/30 13:44:25;;;;;;;20.38;10.05;;;12.80;99.90;;;;;;5112241;28;20055;-71
2022/03/30 13:47:29;;;;;;;15.65;10.25;;;12.80;99.90;;;;;;5111834;28;20823;-71
2022/03/30 13:50:33;;;;;;;16.13;9.20;;;12.80;99.90;;;;;;5093030;28;20059;-71
2022/03/30 13:53:37;;;;;;;15.02;8.07;;;12.80;99.90;;;;;;5110830;28;20050;-71
2022/03/30 13:56:42;;;;;;;11.75;7.55;;;12.80;99.90;;;;;;5111916;28;20047;-71
2022/03/30 13:59:46;;;;;;;9.18;6.13;;;12.70;99.90;;;;;;5112304;28;20039;-71
2022/03/30 14:02:53;;;;;;;12.13;6.95;;;12.80;99.90;;;;;;5102651;28;20051;-71
2022/03/30 14:05:57;;;;;;;12.45;6.82;;;12.90;99.90;;;;;;5112504;28;20048;-71
2022/03/30 14:09:01;;;;;;;11.02;5.22;;;13.00;99.90;;;;;;5112240;28;20046;-71
2022/03/30 14:12:06;;;;;;;9.75;5.78;;;13.10;99.90;;;;;;5111611;28;20054;-71
2022/03/30 14:15:11;;;;;;;9.25;5.78;;;13.00;99.90;;;;;;5103632;28;20046;-71
2022/03/30 14:18:18;;;;;;;10.20;7.20;;;12.90;99.90;;;;;;5104445;28;20046;-71
2022/03/30 14:21:22;;;;;;;12.52;6.60;;;12.80;99.90;;;;;;5102063;28;20366;-71
2022/03/30 14:24:26;;;;;;;12.38;6.50;;;12.60;99.90;;;;;;5096317;28;20113;-71
2022/03/30 14:27:31;;;;;;;10.95;6.38;;;12.50;99.90;;;;;;5105759;28;20054;-71
2022/03/30 14:30:37;;;;;;;14.57;7.30;;;12.40;99.90;;;;;;5106681;28;20058;-71
2022/03/30 14:33:42;;;;;;;10.88;7.32;;;12.30;99.90;;;;;;5109190;28;20402;-71
2022/03/30 14:36:47;;;;;;;12.52;7.68;;;12.20;99.90;;;;;;5100134;28;20066;-71
2022/03/30 14:39:54;;;;;;;12.43;8.90;;;12.10;99.90;;;;;;5105273;28;20039;-71
2022/03/30 14:42:59;;;;;;;15.55;9.05;;;12.00;99.90;;;;;;5107508;28;20042;-71
2022/03/30 14:46:03;;;;;;;15.35;9.80;;;12.00;99.90;;;;;;5100486;28;20035;-71
2022/03/30 14:49:07;;;;;;;15.68;10.85;;;12.00;99.90;;;;;;5101745;28;20052;-71
2022/03/30 14:52:14;;;;;;;15.50;10.98;;;12.10;99.90;;;;;;5107325;28;20414;-71
2022/03/30 14:55:18;;;;;;;21.27;11.23;;;12.10;99.90;;;;;;5105996;28;20038;-71
2022/03/30 14:58:22;;;;;;;12.90;9.57;;;12.00;99.90;;;;;;5104684;28;20039;-70
2022/03/30 15:01:26;;;;;;;16.08;9.88;;;11.90;99.90;;;;;;5110851;28;20050;-71
2022/03/30 15:04:33;;;;;;;17.35;10.80;;;11.70;99.90;;;;;;5108247;28;20034;-70
2022/03/30 15:07:37;;;;;;;19.98;11.63;;;11.40;99.90;;;;;;5106954;28;20121;-70
2022/03/30 15:10:41;;;;;;;18.05;11.27;;;11.50;99.90;;;;;;5102199;28;20047;-71
2022/03/30 15:13:45;;;;;;;19.48;11.98;;;11.60;99.90;;;;;;5104037;28;20046;-71
2022/03/30 15:16:49;;;;;;;19.73;11.50;;;11.60;99.90;;;;;;5109671;28;20054;-71
2022/03/30 15:19:53;;;;;;;16.05;11.45;;;11.60;99.90;;;;;;5106958;28;20043;-71
2022/03/30 15:23:00;;;;;;;15.38;10.82;;;11.60;99.90;;;;;;5110945;28;20039;-71
2022/03/30 15:26:05;;;;;;;20.40;12.27;;;11.70;99.90;;;;;;5106412;28;20048;-72
2022/03/30 15:29:10;;;;;;;16.48;10.68;;;11.60;99.90;;;;;;5110374;28;20046;-71
2022/03/30 15:32:15;;;;;;;17.50;11.50;;;11.50;99.90;;;;;;5111032;28;20047;-72
2022/03/30 15:35:19;;;;;;;16.70;11.50;;;11.50;99.90;;;;;;5111442;28;20046;-72
2022/03/30 15:38:24;;;;;;;18.25;11.65;;;11.50;99.90;;;;;;5110822;28;20050;-72
2022/03/30 15:41:28;;;;;;;16.25;11.73;;;11.50;99.90;;;;;;5102317;28;20387;-71
2022/03/30 15:44:33;;;;;;;19.42;12.32;;;11.40;99.90;;;;;;5102330;28;20050;-72
2022/03/30 15:47:41;;;;;;;17.70;11.43;;;11.40;99.90;;;;;;5102534;28;20051;-72
2022/03/30 15:50:46;;;;;;;19.02;11.88;;;11.50;99.90;;;;;;5105536;28;20047;-72
2022/03/30 15:53:50;;;;;;;20.75;12.43;;;11.50;99.90;;;;;;5101065;28;20486;-72
2022/03/30 15:56:54;;;;;;;15.68;11.38;;;11.50;99.90;;;;;;5109794;28;20367;-71
2022/03/30 15:59:58;;;;;;;16.25;11.10;;;11.40;99.90;;;;;;5094146;28;20042;-71
2022/03/30 16:03:02;;;;;;;20.13;11.55;;;11.40;99.90;;;;;;5101954;28;20494;-71
2022/03/30 16:06:07;;;;;;;21.10;11.77;;;11.30;99.90;;;;;;5104240;28;20062;-71